Time;durP1;ratioP1;P1;durP2;ratioP2;P2;SDS_P1;SDS_P2;PMS_P1;PMS_P2;Temp;Humidity;BMP_temperature;BMP_pressure;BME280_temperature;BME280_humidity;BME280_pressure;Samples;Min_cycle;Max_cycle;Signal;HPM_P1;HPM_P2
2023/11/05 00:02:13;;;;;;;16.50;5.00;;;;;;;-147.86;100.00;49398.37;105985;1256;64638;-47
2023/11/05 00:04:41;;;;;;;16.20;5.30;;;;;;;-147.86;100.00;49400.32;105979;1251;72742;-49
2023/11/05 00:07:08;;;;;;;11.50;4.70;;;;;;;-147.86;100.00;49397.98;105965;1251;62017;-48
2023/11/05 00:09:35;;;;;;;21.70;5.60;;;;;;;-147.86;100.00;49403.86;105945;1251;60859;-48
2023/11/05 00:12:02;;;;;;;13.50;5.40;;;;;;;-147.86;100.00;49415.23;105947;1251;73666;-50
2023/11/05 00:14:30;;;;;;;14.40;4.90;;;;;;;-147.86;100.00;49418.76;105975;1251;65309;-48
2023/11/05 00:16:56;;;;;;;20.20;5.40;;;;;;;-147.86;100.00;49415.62;105984;1252;71392;-48
2023/11/05 00:19:23;;;;;;;13.30;5.70;;;;;;;-147.86;100.00;49413.27;105972;1251;61976;-47
2023/11/05 00:21:51;;;;;;;14.00;5.30;;;;;;;-147.86;100.00;49438.37;105879;1251;60479;-46
2023/11/05 00:24:18;;;;;;;16.80;4.90;;;;;;;-147.86;100.00;49458.37;106099;1255;73827;-48
2023/11/05 00:26:45;;;;;;;19.00;5.60;;;;;;;-147.86;100.00;49448.18;105973;1251;65394;-48
2023/11/05 00:29:14;;;;;;;15.30;4.70;;;;;;;-147.86;100.00;49459.94;105922;1251;72483;-50
2023/11/05 00:31:44;;;;;;;17.70;5.00;;;;;;;-147.86;100.00;49453.67;105898;1259;61811;-47
2023/11/05 00:34:12;;;;;;;16.90;5.00;;;;;;;-147.86;100.00;49444.26;105965;1251;60752;-50
2023/11/05 00:36:39;;;;;;;14.30;4.70;;;;;;;-147.86;100.00;49443.86;105798;1256;286203;-50
2023/11/05 00:41:39;;;;;;;14.00;4.50;;;;;;;-147.86;100.00;49288.96;102424;1294;603253;-50
2023/11/05 00:44:07;;;;;;;16.60;5.00;;;;;;;-147.86;100.00;49434.84;105117;1268;62102;-50
2023/11/05 00:46:34;;;;;;;14.30;4.60;;;;;;;-147.86;100.00;49449.75;105117;1264;60302;-48
2023/11/05 00:49:01;;;;;;;15.60;5.20;;;;;;;-147.86;100.00;49461.51;104870;1270;72209;-51
2023/11/05 00:51:28;;;;;;;12.60;4.70;;;;;;;-147.86;100.00;49427.00;105136;1268;64785;-51
2023/11/05 00:53:55;;;;;;;17.30;4.70;;;;;;;-147.86;100.00;49450.53;104908;1267;342833;-51
2023/11/05 00:56:22;;;;;;;18.90;4.70;;;;;;;-147.86;100.00;49463.86;105203;1265;61943;-49
2023/11/05 00:58:50;;;;;;;15.10;4.50;;;;;;;-147.86;100.00;49450.92;105249;1263;59993;-48
2023/11/05 01:01:17;;;;;;;17.70;6.10;;;;;;;-147.86;100.00;49429.35;105139;1267;72318;-46
2023/11/05 01:03:44;;;;;;;12.90;4.70;;;;;;;-147.86;100.00;49425.82;105166;1268;64577;-50
2023/11/05 01:06:11;;;;;;;22.30;4.80;;;;;;;-147.86;100.00;49424.64;105248;1266;72637;-52
2023/11/05 01:08:39;;;;;;;14.60;4.50;;;;;;;-147.86;100.00;49397.98;105198;1266;61911;-49
2023/11/05 01:11:06;;;;;;;13.20;4.50;;;;;;;-147.86;100.00;49394.05;104847;1263;60182;-53
2023/11/05 01:13:33;;;;;;;16.80;4.70;;;;;;;-147.86;100.00;49400.72;104961;1266;71945;-50
2023/11/05 01:16:01;;;;;;;11.70;4.20;;;;;;;-147.86;100.00;49407.39;105071;1266;65568;-48
2023/11/05 01:18:28;;;;;;;17.30;4.90;;;;;;;-147.86;100.00;49400.32;105225;1266;72554;-53
2023/11/05 01:20:56;;;;;;;15.80;4.80;;;;;;;-147.86;100.00;49407.39;105213;1266;61925;-53
2023/11/05 01:23:23;;;;;;;20.80;4.70;;;;;;;-147.86;100.00;49380.72;105236;1264;60349;-55
2023/11/05 01:25:50;;;;;;;16.20;4.40;;;;;;;-147.86;100.00;49381.50;105258;1266;73148;-53
2023/11/05 01:28:18;;;;;;;15.70;4.10;;;;;;;-147.86;100.00;49372.48;105232;1266;64607;-48
2023/11/05 01:30:45;;;;;;;21.50;4.30;;;;;;;-147.86;100.00;49370.52;105236;1264;71229;-48
2023/11/05 01:33:12;;;;;;;15.80;4.90;;;;;;;-147.86;100.00;49369.35;105233;1265;61940;-52
2023/11/05 01:35:39;;;;;;;14.30;4.50;;;;;;;-147.86;100.00;49377.58;105197;1266;59644;-48
2023/11/05 01:38:06;;;;;;;16.80;4.80;;;;;;;-147.86;100.00;49387.38;105241;1266;73344;-49
2023/11/05 01:40:33;;;;;;;15.90;4.80;;;;;;;-147.86;100.00;49393.66;105137;1268;64769;-48
2023/11/05 01:43:00;;;;;;;15.60;4.60;;;;;;;-147.86;100.00;49387.38;105239;1267;72592;-49
2023/11/05 01:45:27;;;;;;;10.10;4.50;;;;;;;-147.86;100.00;49392.48;105225;1276;62018;-49
2023/11/05 01:47:55;;;;;;;14.20;4.70;;;;;;;-147.86;100.00;49394.84;105620;1254;60448;-49
2023/11/05 01:50:22;;;;;;;14.70;4.80;;;;;;;-147.86;100.00;49387.38;105657;1259;72781;-50
2023/11/05 01:52:54;;;;;;;13.50;4.30;;;;;;;-147.86;100.00;49396.41;105987;1254;65327;-46
2023/11/05 01:55:22;;;;;;;21.00;5.50;;;;;;;-147.86;100.00;49379.93;105948;1251;72641;-52
2023/11/05 01:57:50;;;;;;;14.20;5.20;;;;;;;-147.86;100.00;49406.61;105942;1255;61085;-49
2023/11/05 02:00:18;;;;;;;17.50;4.60;;;;;;;-147.86;100.00;49407.78;105893;1251;60067;-48
2023/11/05 02:02:45;;;;;;;16.50;5.50;;;;;;;-147.86;100.00;49403.86;105787;1257;72105;-49
2023/11/05 02:05:12;;;;;;;26.20;5.80;;;;;;;-147.86;100.00;49410.13;106015;1254;64685;-47
2023/11/05 02:07:39;;;;;;;19.20;5.50;;;;;;;-147.86;100.00;49414.45;105877;1251;72793;-49
2023/11/05 02:10:07;;;;;;;19.20;4.60;;;;;;;-147.86;100.00;49448.96;105941;1254;61951;-50
2023/11/05 02:12:34;;;;;;;18.20;4.80;;;;;;;-147.86;100.00;49441.12;106012;1257;60033;-51
2023/11/05 02:15:01;;;;;;;14.40;4.50;;;;;;;-147.86;100.00;49433.66;105918;1255;72997;-47
2023/11/05 02:17:28;;;;;;;14.00;4.50;;;;;;;-147.86;100.00;49440.73;106008;1254;64554;-50
2023/11/05 02:19:55;;;;;;;11.40;4.20;;;;;;;-147.86;100.00;49443.47;105965;1257;73079;-51
2023/11/05 02:22:22;;;;;;;14.00;4.80;;;;;;;-147.86;100.00;49469.35;105952;1255;60805;-49
2023/11/05 02:24:48;;;;;;;16.40;4.50;;;;;;;-147.86;100.00;49465.43;105889;1256;60304;-46
2023/11/05 02:27:15;;;;;;;21.10;5.60;;;;;;;-147.86;100.00;49486.61;105943;1254;73037;-50
2023/11/05 02:29:42;;;;;;;18.00;5.00;;;;;;;-147.86;100.00;49485.83;105834;1257;64643;-50
2023/11/05 02:32:09;;;;;;;18.90;4.60;;;;;;;-147.86;100.00;49523.48;105822;1255;72502;-51
2023/11/05 02:34:36;;;;;;;15.90;4.60;;;;;;;-147.86;100.00;49546.62;106061;1254;60397;-51
2023/11/05 02:37:03;;;;;;;12.50;4.30;;;;;;;-147.86;100.00;49547.79;105953;1251;60385;-46
2023/11/05 02:39:30;;;;;;;14.30;4.20;;;;;;;-147.86;100.00;49545.83;105976;1251;73099;-48
2023/11/05 02:41:57;;;;;;;16.20;5.10;;;;;;;-147.86;100.00;49560.34;105927;1254;64631;-46
2023/11/05 02:44:25;;;;;;;15.60;5.30;;;;;;;-147.86;100.00;49578.39;106040;1256;72671;-49
2023/11/05 02:46:52;;;;;;;19.10;4.30;;;;;;;-147.86;100.00;49584.27;105916;1254;61761;-50
2023/11/05 02:49:20;;;;;;;19.70;4.40;;;;;;;-147.86;100.00;49591.72;105630;1251;60257;-50
2023/11/05 02:51:47;;;;;;;20.30;4.60;;;;;;;-147.86;100.00;49583.09;105947;1251;72879;-50
2023/11/05 02:54:14;;;;;;;15.20;4.60;;;;;;;-147.86;100.00;49594.86;105857;1257;64531;-48
2023/11/05 02:56:41;;;;;;;14.20;4.70;;;;;;;-147.86;100.00;49585.45;105950;1251;71549;-47
2023/11/05 02:59:09;;;;;;;10.80;4.30;;;;;;;-147.86;100.00;49594.47;105967;1252;61759;-47
2023/11/05 03:01:37;;;;;;;18.90;5.20;;;;;;;-147.86;100.00;49593.68;105981;1251;60263;-49
2023/11/05 03:04:05;;;;;;;19.00;5.10;;;;;;;-147.86;100.00;49605.84;105928;1257;72804;-48
2023/11/05 03:06:32;;;;;;;14.80;4.60;;;;;;;-147.86;100.00;49611.34;105977;1255;64451;-47
2023/11/05 03:09:00;;;;;;;16.00;4.70;;;;;;;-147.86;100.00;49617.22;105935;1255;72559;-47
2023/11/05 03:11:27;;;;;;;20.60;4.50;;;;;;;-147.86;100.00;49621.92;105997;1255;62007;-53
2023/11/05 03:13:54;;;;;;;12.80;4.30;;;;;;;-147.86;100.00;49619.96;105993;1252;60260;-47
2023/11/05 03:16:21;;;;;;;23.40;8.30;;;;;;;-147.86;100.00;49624.67;105938;1257;73027;-49
2023/11/05 03:18:48;;;;;;;24.30;6.10;;;;;;;-147.86;100.00;49619.18;105939;1255;64701;-52
2023/11/05 03:21:16;;;;;;;16.20;5.00;;;;;;;-147.86;100.00;49643.49;105725;1251;72708;-50
2023/11/05 03:23:43;;;;;;;13.30;4.40;;;;;;;-147.86;100.00;49637.61;105912;1251;60790;-49
2023/11/05 03:26:10;;;;;;;16.50;4.60;;;;;;;-147.86;100.00;49633.69;105962;1252;60118;-49
2023/11/05 03:28:37;;;;;;;23.70;4.80;;;;;;;-147.86;100.00;49643.10;105949;1256;72911;-47
2023/11/05 03:31:05;;;;;;;12.20;4.30;;;;;;;-147.86;100.00;49650.55;105933;1261;65425;-51
2023/11/05 03:33:32;;;;;;;17.10;5.10;;;;;;;-147.86;100.00;49688.60;105888;1251;72669;-51
2023/11/05 03:36:00;;;;;;;15.10;4.40;;;;;;;-147.86;100.00;49663.50;105919;1256;61944;-46
2023/11/05 03:38:27;;;;;;;17.40;4.20;;;;;;;-147.86;100.00;49663.89;105932;1251;60141;-48
2023/11/05 03:40:54;;;;;;;25.60;4.60;;;;;;;-147.86;100.00;49676.05;105957;1255;72996;-51
2023/11/05 03:43:21;;;;;;;10.80;4.00;;;;;;;-147.86;100.00;49691.34;105973;1251;64648;-50
2023/11/05 03:45:48;;;;;;;18.20;4.70;;;;;;;-147.86;100.00;49674.48;105923;1251;71524;-49
2023/11/05 03:48:15;;;;;;;18.00;4.70;;;;;;;-147.86;100.00;49683.89;105928;1257;61989;-48
2023/11/05 03:50:42;;;;;;;18.20;4.20;;;;;;;-147.86;100.00;49692.91;105955;1251;60291;-48
2023/11/05 03:53:09;;;;;;;23.60;4.80;;;;;;;-147.86;100.00;49668.60;105926;1257;72051;-48
2023/11/05 03:55:35;;;;;;;11.90;4.10;;;;;;;-147.86;100.00;49694.09;105941;1254;65080;-49
2023/11/05 03:58:03;;;;;;;11.90;4.10;;;;;;;-147.86;100.00;49661.14;105967;1251;71622;-50
2023/11/05 04:00:30;;;;;;;14.20;4.10;;;;;;;-147.86;100.00;49649.38;106003;1257;62037;-51
2023/11/05 04:02:57;;;;;;;13.40;3.90;;;;;;;-147.86;100.00;49628.59;105941;1252;60160;-48
2023/11/05 04:05:24;;;;;;;12.40;4.00;;;;;;;-147.86;100.00;49616.43;105945;1254;72961;-51
2023/11/05 04:07:51;;;;;;;22.90;4.20;;;;;;;-147.86;100.00;49602.31;105962;1257;64635;-49
2023/11/05 04:10:18;;;;;;;13.40;3.80;;;;;;;-147.86;100.00;49548.98;105993;1251;72695;-48
2023/11/05 04:12:45;;;;;;;10.90;3.40;;;;;;;-147.86;100.00;49542.70;105855;1256;61987;-51
2023/11/05 04:15:12;;;;;;;17.30;4.10;;;;;;;-147.86;100.00;49514.85;105965;1256;60096;-47
2023/11/05 04:17:39;;;;;;;16.10;4.10;;;;;;;-147.86;100.00;49497.59;105922;1257;73009;-46
2023/11/05 04:20:06;;;;;;;10.30;3.60;;;;;;;-147.86;100.00;49485.04;105932;1257;65330;-47
2023/11/05 04:22:34;;;;;;;11.40;3.60;;;;;;;-147.86;100.00;49473.67;105941;1253;72604;-53
2023/11/05 04:25:01;;;;;;;14.20;4.00;;;;;;;-147.86;100.00;49470.14;105929;1257;61829;-51
2023/11/05 04:27:28;;;;;;;20.10;4.50;;;;;;;-147.86;100.00;49460.33;105926;1251;60329;-49
2023/11/05 04:29:55;;;;;;;13.70;4.30;;;;;;;-147.86;100.00;49459.55;105971;1256;72822;-47
2023/11/05 04:32:23;;;;;;;9.80;3.20;;;;;;;-147.86;100.00;49454.45;105942;1257;64639;-49
2023/11/05 04:34:50;;;;;;;13.80;3.70;;;;;;;-147.86;100.00;49458.37;105924;1251;72542;-47
2023/11/05 04:37:18;;;;;;;17.10;3.80;;;;;;;-147.86;100.00;49459.94;105941;1257;61852;-49
2023/11/05 04:39:44;;;;;;;12.90;3.60;;;;;;;-147.86;100.00;49448.18;105961;1251;61392;-49
2023/11/05 04:42:11;;;;;;;9.60;3.40;;;;;;;-147.86;100.00;49477.59;105945;1256;72890;-49
2023/11/05 04:44:39;;;;;;;12.60;3.30;;;;;;;-147.86;100.00;49463.86;105968;1255;65702;-51
2023/11/05 04:47:06;;;;;;;13.40;4.70;;;;;;;-147.86;100.00;49451.31;105909;1251;72657;-52
2023/11/05 04:49:33;;;;;;;13.70;4.30;;;;;;;-147.86;100.00;49437.59;105928;1251;60423;-49
2023/11/05 04:52:00;;;;;;;16.80;3.60;;;;;;;-147.86;100.00;49436.41;105975;1251;60402;-49
2023/11/05 04:54:27;;;;;;;19.80;4.10;;;;;;;-147.86;100.00;49425.43;105912;1251;73585;-48
2023/11/05 04:56:54;;;;;;;14.00;3.90;;;;;;;-147.86;100.00;49417.98;105924;1256;64719;-51
2023/11/05 04:59:21;;;;;;;14.30;3.60;;;;;;;-147.86;100.00;49422.29;105946;1251;72386;-51
2023/11/05 05:01:48;;;;;;;22.20;4.10;;;;;;;-147.86;100.00;49437.20;106021;1251;61846;-51
2023/11/05 05:04:16;;;;;;;12.00;3.00;;;;;;;-147.86;100.00;49419.15;105874;1251;60399;-52
2023/11/05 05:06:43;;;;;;;12.30;3.30;;;;;;;-147.86;100.00;49458.77;105909;1255;73876;-50
2023/11/05 05:09:10;;;;;;;24.30;4.50;;;;;;;-147.86;100.00;49481.52;105883;1255;64690;-48
2023/11/05 05:11:37;;;;;;;20.10;4.40;;;;;;;-147.86;100.00;49507.79;105895;1251;72775;-49
2023/11/05 05:14:04;;;;;;;12.40;3.40;;;;;;;-147.86;100.00;49532.11;105953;1255;61907;-49
2023/11/05 05:16:31;;;;;;;13.40;3.80;;;;;;;-147.86;100.00;49589.76;105896;1251;60754;-53
2023/11/05 05:18:58;;;;;;;21.50;3.70;;;;;;;-147.86;100.00;49607.02;105926;1255;73755;-51
2023/11/05 05:21:26;;;;;;;15.70;3.30;;;;;;;-147.86;100.00;49652.91;105876;1256;64551;-51
2023/11/05 05:23:53;;;;;;;19.40;3.50;;;;;;;-147.86;100.00;49712.13;105916;1251;72670;-51
2023/11/05 05:26:20;;;;;;;17.00;3.40;;;;;;;-147.86;100.00;49762.34;105948;1251;61980;-49
2023/11/05 05:28:47;;;;;;;11.30;3.60;;;;;;;-147.86;100.00;49790.19;106018;1251;60800;-51
2023/11/05 05:31:15;;;;;;;10.40;3.30;;;;;;;-147.86;100.00;49840.00;105960;1251;72803;-47
2023/11/05 05:33:42;;;;;;;14.10;3.20;;;;;;;-147.86;100.00;49880.01;105961;1255;64412;-50
2023/11/05 05:36:10;;;;;;;13.10;3.80;;;;;;;-147.86;100.00;49914.91;105955;1251;72644;-52
2023/11/05 05:38:37;;;;;;;12.20;3.20;;;;;;;-147.86;100.00;49941.59;105943;1251;61852;-52
2023/11/05 05:41:04;;;;;;;15.00;3.20;;;;;;;-147.86;100.00;49971.40;105987;1251;61838;-51
2023/11/05 05:43:32;;;;;;;16.90;4.00;;;;;;;-147.86;100.00;50011.41;105929;1256;73772;-48
2023/11/05 05:45:59;;;;;;;18.40;3.50;;;;;;;-147.86;100.00;50014.16;105973;1256;64713;-53
2023/11/05 05:48:26;;;;;;;17.40;3.60;;;;;;;-147.86;100.00;50036.91;105940;1257;72428;-47
2023/11/05 05:50:54;;;;;;;15.30;3.50;;;;;;;-147.86;100.00;50060.84;105948;1254;61909;-51
2023/11/05 05:53:21;;;;;;;15.60;4.00;;;;;;;-147.86;100.00;50082.41;105962;1251;60685;-52
2023/11/05 05:55:50;;;;;;;16.80;3.70;;;;;;;-147.86;100.00;50097.71;105949;1256;74893;-51
2023/11/05 05:58:19;;;;;;;11.90;3.30;;;;;;;-147.86;100.00;50136.15;105926;1251;64686;-49
2023/11/05 06:00:46;;;;;;;19.00;3.60;;;;;;;-147.86;100.00;50154.58;105905;1252;72511;-53
2023/11/05 06:03:12;;;;;;;13.20;4.00;;;;;;;-147.86;100.00;50196.55;105949;1255;61895;-50
2023/11/05 06:05:39;;;;;;;13.60;3.40;;;;;;;-147.86;100.00;50203.62;105937;1251;60437;-50
2023/11/05 06:08:06;;;;;;;21.00;3.60;;;;;;;-147.86;100.00;50225.59;105962;1256;73847;-52
2023/11/05 06:10:33;;;;;;;15.80;3.60;;;;;;;-147.86;100.00;50235.79;105951;1253;65519;-51
2023/11/05 06:13:00;;;;;;;15.60;4.20;;;;;;;-147.86;100.00;50253.43;105973;1251;72544;-50
2023/11/05 06:15:27;;;;;;;16.80;3.40;;;;;;;-147.86;100.00;50256.97;105922;1253;61902;-51
2023/11/05 06:17:54;;;;;;;13.80;4.20;;;;;;;-147.86;100.00;50289.13;106047;1251;60412;-51
2023/11/05 06:20:21;;;;;;;23.00;3.70;;;;;;;-147.86;100.00;50283.64;105962;1251;73684;-47
2023/11/05 06:22:48;;;;;;;23.70;4.60;;;;;;;-147.86;100.00;50302.47;105918;1251;65766;-47
2023/11/05 06:25:15;;;;;;;16.00;4.50;;;;;;;-147.86;100.00;50326.01;105953;1255;72524;-49
2023/11/05 06:27:43;;;;;;;12.00;3.70;;;;;;;-147.86;100.00;50316.20;105891;1256;62021;-49
2023/11/05 06:30:10;;;;;;;13.00;4.00;;;;;;;-147.86;100.00;50309.14;105961;1251;60453;-48
2023/11/05 06:32:38;;;;;;;17.30;4.20;;;;;;;-147.86;100.00;50318.95;105930;1256;73611;-51
2023/11/05 06:35:07;;;;;;;15.00;3.70;;;;;;;-147.86;100.00;50318.16;106119;1255;65399;-52
2023/11/05 06:37:34;;;;;;;17.00;4.00;;;;;;;-147.86;100.00;50326.40;105945;1255;71183;-54
2023/11/05 06:40:01;;;;;;;17.20;3.80;;;;;;;-147.86;100.00;50342.09;105828;1256;61832;-51
2023/11/05 06:42:28;;;;;;;17.00;3.50;;;;;;;-147.86;100.00;50332.68;105793;1251;60415;-51
2023/11/05 06:44:55;;;;;;;20.10;4.20;;;;;;;-147.86;100.00;50336.60;105830;1252;72794;-50
2023/11/05 06:47:22;;;;;;;14.40;3.80;;;;;;;-147.86;100.00;50342.09;105869;1251;63679;-54
2023/11/05 06:49:49;;;;;;;14.50;3.20;;;;;;;-147.86;100.00;50343.27;105965;1251;72729;-53
2023/11/05 06:52:16;;;;;;;17.90;4.50;;;;;;;-147.86;100.00;50316.59;105971;1255;61856;-53
2023/11/05 06:54:43;;;;;;;12.30;3.40;;;;;;;-147.86;100.00;50330.72;105949;1255;60559;-53
2023/11/05 06:57:09;;;;;;;15.80;3.80;;;;;;;-147.86;100.00;50325.22;105947;1256;73905;-50
2023/11/05 06:59:36;;;;;;;15.50;4.30;;;;;;;-147.86;100.00;50344.05;105942;1251;64379;-48
2023/11/05 07:02:04;;;;;;;9.30;3.10;;;;;;;-147.86;100.00;50307.96;105989;1251;72614;-50
2023/11/05 07:04:31;;;;;;;9.20;3.50;;;;;;;-147.86;100.00;50340.52;105926;1251;60775;-46
2023/11/05 07:07:00;;;;;;;14.60;3.20;;;;;;;-147.86;100.00;50330.32;105922;1251;60530;-48
2023/11/05 07:09:27;;;;;;;12.30;3.30;;;;;;;-147.86;100.00;50338.96;105957;1253;73810;-48
2023/11/05 07:11:54;;;;;;;10.80;3.00;;;;;;;-147.86;100.00;50341.30;105962;1255;65493;-50
2023/11/05 07:14:21;;;;;;;13.50;2.70;;;;;;;-147.86;100.00;50345.23;105942;1251;72597;-48
2023/11/05 07:16:49;;;;;;;13.80;3.70;;;;;;;-147.86;100.00;50339.34;105904;1251;61964;-48
2023/11/05 07:19:16;;;;;;;13.10;2.80;;;;;;;-147.86;100.00;50341.70;105970;1251;60445;-50
2023/11/05 07:21:45;;;;;;;12.90;2.80;;;;;;;-147.86;100.00;50335.03;105879;1253;73809;-50
2023/11/05 07:24:14;;;;;;;12.20;3.20;;;;;;;-147.86;100.00;50356.21;106009;1256;64640;-48
2023/11/05 07:26:43;;;;;;;10.70;2.60;;;;;;;-147.86;100.00;50344.45;105955;1251;72612;-51
2023/11/05 07:29:13;;;;;;;14.50;3.60;;;;;;;-147.86;100.00;50355.82;105950;1254;61849;-50
2023/11/05 07:31:42;;;;;;;14.00;2.80;;;;;;;-147.86;100.00;50363.67;106022;1251;60459;-50
2023/11/05 07:34:11;;;;;;;9.70;3.10;;;;;;;-147.86;100.00;50342.09;105903;1255;73709;-50
2023/11/05 07:36:38;;;;;;;14.00;3.50;;;;;;;-147.86;100.00;50351.90;105980;1256;64561;-50
2023/11/05 07:39:09;;;;;;;6.80;2.80;;;;;;;-147.86;100.00;50362.88;105955;1251;72605;-50
2023/11/05 07:41:37;;;;;;;13.80;3.70;;;;;;;-147.86;100.00;50347.19;105903;1254;61897;-49
2023/11/05 07:44:05;;;;;;;14.30;3.30;;;;;;;-147.86;100.00;50356.61;105948;1251;60604;-47
2023/11/05 07:46:33;;;;;;;16.10;3.70;;;;;;;-147.86;100.00;50357.39;105960;1251;73619;-51
2023/11/05 07:49:00;;;;;;;10.20;3.10;;;;;;;-147.86;100.00;50358.96;105935;1251;64704;-49
2023/11/05 07:51:28;;;;;;;17.80;4.40;;;;;;;-147.86;100.00;50349.15;105926;1251;72565;-48
2023/11/05 07:53:55;;;;;;;11.40;3.00;;;;;;;-147.86;100.00;50374.65;105953;1254;61950;-48
2023/11/05 07:56:22;;;;;;;17.50;4.30;;;;;;;-147.86;100.00;50371.91;105916;1251;60451;-49
2023/11/05 07:58:50;;;;;;;16.20;3.10;;;;;;;-147.86;100.00;50357.39;105949;1251;73792;-49
2023/11/05 08:01:17;;;;;;;18.10;3.90;;;;;;;-147.86;100.00;50365.63;105953;1256;64761;-52
2023/11/05 08:03:45;;;;;;;13.70;3.20;;;;;;;-147.86;100.00;50376.22;105814;1252;72614;-49
2023/11/05 08:06:12;;;;;;;12.50;3.80;;;;;;;-147.86;100.00;50377.79;105955;1255;61891;-47
2023/11/05 08:08:39;;;;;;;27.90;9.60;;;;;;;-147.86;100.00;50374.65;105966;1251;60419;-50
2023/11/05 08:11:06;;;;;;;13.00;3.10;;;;;;;-147.86;100.00;50374.26;106047;1251;73126;-50
2023/11/05 08:13:34;;;;;;;12.30;3.30;;;;;;;-147.86;100.00;50397.01;105965;1253;65106;-48
2023/11/05 08:16:02;;;;;;;11.50;3.00;;;;;;;-147.86;100.00;50391.13;105909;1251;72663;-50
2023/11/05 08:18:29;;;;;;;10.50;3.20;;;;;;;-147.86;100.00;50408.78;105908;1256;61964;-48
2023/11/05 08:20:56;;;;;;;13.20;3.20;;;;;;;-147.86;100.00;50399.76;105931;1251;60431;-50
2023/11/05 08:23:23;;;;;;;13.90;3.70;;;;;;;-147.86;100.00;50414.66;105935;1251;73702;-50
2023/11/05 08:25:50;;;;;;;9.00;2.80;;;;;;;-147.86;100.00;50415.06;105979;1251;64681;-49
2023/11/05 08:28:17;;;;;;;13.80;3.10;;;;;;;-147.86;100.00;50407.61;105939;1251;72609;-47
2023/11/05 08:30:53;;;;;;;12.50;3.20;;;;;;;-147.86;100.00;50405.25;105898;1251;61932;-49
2023/11/05 08:33:21;;;;;;;12.80;3.40;;;;;;;-147.86;100.00;50404.07;105971;1256;60370;-49
2023/11/05 08:35:50;;;;;;;15.30;3.30;;;;;;;-147.86;100.00;50416.63;105931;1253;74004;-49
2023/11/05 08:38:17;;;;;;;15.00;3.80;;;;;;;-147.86;100.00;50403.68;105959;1255;63745;-51
2023/11/05 08:40:45;;;;;;;10.80;2.80;;;;;;;-147.86;100.00;50386.42;105948;1255;72511;-48
2023/11/05 08:43:12;;;;;;;20.10;4.30;;;;;;;-147.86;100.00;50389.56;105931;1255;61932;-50
2023/11/05 08:45:39;;;;;;;11.60;3.20;;;;;;;-147.86;100.00;50367.59;105932;1251;60437;-51
2023/11/05 08:48:17;;;;;;;14.10;3.20;;;;;;;-147.86;100.00;50371.52;105924;1256;73861;-53
2023/11/05 08:50:44;;;;;;;13.50;3.40;;;;;;;-147.86;100.00;50376.61;105942;1256;63129;-50
2023/11/05 08:53:12;;;;;;;12.00;2.90;;;;;;;-147.86;100.00;50359.35;105934;1251;72632;-49
2023/11/05 08:55:39;;;;;;;10.70;3.40;;;;;;;-147.86;100.00;50376.61;105935;1251;61823;-48
2023/11/05 08:58:05;;;;;;;7.90;2.80;;;;;;;-147.86;100.00;50357.39;105957;1251;60326;-51
2023/11/05 09:00:34;;;;;;;2.10;1.10;;;;;;;-147.86;100.00;50371.12;105929;1256;73708;-50
2023/11/05 09:03:01;;;;;;;1.60;0.80;;;;;;;-147.86;100.00;50359.35;105929;1251;65707;-50
2023/11/05 09:05:29;;;;;;;5.40;1.70;;;;;;;-147.86;100.00;50301.69;105987;1253;72583;-48
2023/11/05 09:07:56;;;;;;;4.90;1.30;;;;;;;-147.86;100.00;50244.80;105949;1255;61730;-49
2023/11/05 09:10:26;;;;;;;6.40;1.40;;;;;;;-147.86;100.00;50261.68;105995;1251;60450;-49
2023/11/05 09:12:53;;;;;;;2.20;1.70;;;;;;;-147.86;100.00;50271.88;105924;1256;73761;-46
2023/11/05 09:15:20;;;;;;;6.10;2.40;;;;;;;-147.86;100.00;50276.59;105935;1251;65588;-50
2023/11/05 09:17:48;;;;;;;2.50;2.30;;;;;;;-147.86;100.00;50308.75;105978;1251;73440;-52
2023/11/05 09:20:15;;;;;;;6.80;3.00;;;;;;;-147.86;100.00;50327.19;105935;1255;60978;-52
2023/11/05 09:22:42;;;;;;;4.20;3.10;;;;;;;-147.86;100.00;50320.52;105996;1251;60437;-47
2023/11/05 09:25:09;;;;;;;5.00;3.80;;;;;;;-147.86;100.00;50326.40;106000;1251;73856;-48
2023/11/05 09:27:37;;;;;;;4.30;3.30;;;;;;;-147.86;100.00;50349.16;105962;1254;64407;-51
2023/11/05 09:30:11;;;;;;;4.70;4.30;;;;;;;-147.86;100.00;50325.61;105969;1252;72901;-50
2023/11/05 09:32:38;;;;;;;4.70;4.10;;;;;;;-147.86;100.00;50324.05;105789;1251;62198;-53
2023/11/05 09:35:07;;;;;;;8.70;4.90;;;;;;;-147.86;100.00;50324.05;105775;1251;60377;-48
2023/11/05 09:37:34;;;;;;;5.70;5.20;;;;;;;-147.86;100.00;50324.83;105993;1251;72611;-52
2023/11/05 09:40:02;;;;;;;9.50;5.70;;;;;;;-147.86;100.00;50309.14;106020;1253;64692;-49
2023/11/05 09:42:30;;;;;;;11.30;6.50;;;;;;;-147.86;100.00;50298.55;105961;1251;71554;-50
2023/11/05 09:44:58;;;;;;;12.30;6.50;;;;;;;-147.86;100.00;50295.41;105926;1251;61657;-50
2023/11/05 09:47:25;;;;;;;6.20;5.60;;;;;;;-147.86;100.00;50295.41;105940;1254;60308;-47
2023/11/05 09:49:52;;;;;;;5.60;5.20;;;;;;;-147.86;100.00;50285.99;105949;1257;73803;-47
2023/11/05 09:52:21;;;;;;;4.30;4.00;;;;;;;-147.86;100.00;50296.59;105928;1255;64674;-50
2023/11/05 09:54:48;;;;;;;9.50;3.70;;;;;;;-147.86;100.00;50287.57;105914;1251;72824;-47
2023/11/05 09:57:15;;;;;;;3.40;3.10;;;;;;;-147.86;100.00;50322.87;105949;1256;60472;-49
2023/11/05 09:59:48;;;;;;;2.70;2.50;;;;;;;-147.86;100.00;50342.09;105951;1251;60437;-46
2023/11/05 10:02:16;;;;;;;1.30;1.20;;;;;;;-147.86;100.00;50374.65;105958;1251;73728;-49
2023/11/05 10:04:43;;;;;;;1.30;1.20;;;;;;;-147.86;100.00;50373.87;105962;1251;65429;-49
2023/11/05 10:07:10;;;;;;;1.00;0.90;;;;;;;-147.86;100.00;50316.60;105997;1251;72258;-50
2023/11/05 10:09:39;;;;;;;1.30;1.10;;;;;;;-147.86;100.00;50262.46;105938;1251;61210;-49
2023/11/05 10:12:06;;;;;;;1.20;1.10;;;;;;;-147.86;100.00;50172.63;105989;1251;61255;-49
2023/11/05 10:14:33;;;;;;;0.70;0.70;;;;;;;-147.86;100.00;50108.30;105960;1251;73647;-49
2023/11/05 10:17:00;;;;;;;1.00;0.60;;;;;;;-147.86;100.00;50060.83;105935;1251;64278;-50
2023/11/05 10:19:28;;;;;;;1.40;0.70;;;;;;;-147.86;100.00;49992.19;105942;1252;72802;-49
2023/11/05 10:21:55;;;;;;;3.20;0.70;;;;;;;-147.86;100.00;49872.16;105933;1251;62259;-48
2023/11/05 10:24:39;;;;;;;2.30;0.50;;;;;;;-147.86;100.00;49801.96;105952;1251;61416;-49
2023/11/05 10:27:06;;;;;;;5.10;0.40;;;;;;;-147.86;100.00;49720.76;105991;1251;73164;-49
2023/11/05 10:29:33;;;;;;;1.30;0.40;;;;;;;-147.86;100.00;49585.05;105934;1251;64596;-48
2023/11/05 10:32:01;;;;;;;3.20;0.40;;;;;;;-147.86;100.00;49434.45;105922;1251;72651;-46
2023/11/05 10:34:29;;;;;;;0.60;0.30;;;;;;;-147.86;100.00;49289.73;105966;1256;61809;-51
2023/11/05 10:36:56;;;;;;;2.40;0.30;;;;;;;-147.86;100.00;49201.49;106138;1251;60678;-47
2023/11/05 10:39:24;;;;;;;0.30;0.30;;;;;;;-147.86;100.00;49151.29;105932;1256;73697;-49
2023/11/05 10:41:51;;;;;;;0.40;0.30;;;;;;;-147.86;100.00;49068.94;106006;1255;64718;-50
2023/11/05 10:44:18;;;;;;;0.40;0.30;;;;;;;-147.86;100.00;48957.18;105983;1251;72842;-52
2023/11/05 10:46:45;;;;;;;1.00;0.30;;;;;;;-147.86;100.00;48898.36;105770;1251;62022;-50
2023/11/05 10:49:12;;;;;;;0.40;0.40;;;;;;;-147.86;100.00;48854.43;106019;1251;60457;-50
2023/11/05 10:51:40;;;;;;;0.20;0.20;;;;;;;-147.86;100.00;48836.00;105947;1251;73985;-50
2023/11/05 10:54:07;;;;;;;0.50;0.30;;;;;;;-147.86;100.00;48823.85;105936;1257;64574;-49
2023/11/05 10:56:36;;;;;;;0.40;0.10;;;;;;;-147.86;100.00;48801.89;105970;1251;72649;-50
2023/11/05 10:59:03;;;;;;;0.60;0.30;;;;;;;-147.86;100.00;48746.60;106018;1253;60877;-48